Time;durP1;ratioP1;P1;durP2;ratioP2;P2;SDS_P1;SDS_P2;PMS_P1;PMS_P2;Temp;Humidity;BMP_temperature;BMP_pressure;BME280_temperature;BME280_humidity;BME280_pressure;Samples;Min_cycle;Max_cycle;Signal;HPM_P1;HPM_P2
2022/08/31 00:04:09;;;;;;;9.60;5.88;;;;;;;19.40;78.10;98511.50;5070656;28;20048;-60
2022/08/31 00:06:35;;;;;;;8.45;5.07;;;;;;;19.38;78.30;98517.88;5074825;28;20048;-59
2022/08/31 00:09:03;;;;;;;11.32;6.40;;;;;;;19.35;78.39;98518.16;5089948;28;20040;-59
2022/08/31 00:11:29;;;;;;;8.40;4.93;;;;;;;19.34;78.50;98514.69;5055140;28;20432;-56
2022/08/31 00:13:58;;;;;;;8.30;5.05;;;;;;;19.33;78.76;98514.81;5073058;28;20040;-58
2022/08/31 00:16:25;;;;;;;7.68;4.90;;;;;;;19.30;78.72;98515.09;5065401;28;20044;-59
2022/08/31 00:18:51;;;;;;;7.25;5.35;;;;;;;19.25;79.04;98515.50;5074375;28;20135;-59
2022/08/31 00:21:19;;;;;;;13.23;5.78;;;;;;;19.24;79.15;98518.28;5071244;28;20439;-58
2022/08/31 00:23:45;;;;;;;10.05;5.60;;;;;;;19.23;79.20;98521.88;5071690;28;20036;-57
2022/08/31 00:26:13;;;;;;;10.88;6.20;;;;;;;19.20;79.37;98520.34;5070234;28;20041;-57
2022/08/31 00:28:38;;;;;;;12.35;6.13;;;;;;;19.15;79.66;98522.56;5069053;28;20110;-58
2022/08/31 00:31:04;;;;;;;11.65;5.60;;;;;;;19.14;79.81;98517.41;5071555;28;20074;-59
2022/08/31 00:33:30;;;;;;;10.38;5.13;;;;;;;19.14;79.74;98514.78;5050106;28;20144;-58
2022/08/31 00:35:57;;;;;;;6.85;5.22;;;;;;;19.11;79.77;98521.13;5066463;28;20049;-59
2022/08/31 00:38:23;;;;;;;9.18;5.40;;;;;;;19.06;80.25;98520.72;5066724;28;20051;-60
2022/08/31 00:40:50;;;;;;;11.18;4.78;;;;;;;19.03;80.20;98526.25;5066229;28;20041;-58
2022/08/31 00:43:34;;;;;;;10.35;5.43;;;;;;;19.01;80.29;98515.00;5068967;28;20537;-57
2022/08/31 00:46:01;;;;;;;8.95;5.72;;;;;;;18.98;80.21;98515.28;5077311;28;20135;-58
2022/08/31 00:48:27;;;;;;;8.38;5.05;;;;;;;18.94;80.30;98506.84;5077075;28;20316;-59
2022/08/31 00:50:53;;;;;;;10.07;5.40;;;;;;;18.94;80.46;98512.09;5068458;28;20082;-58
2022/08/31 00:53:18;;;;;;;10.48;5.45;;;;;;;18.94;80.61;98516.53;5088550;28;20040;-58
2022/08/31 00:55:45;;;;;;;7.72;5.32;;;;;;;18.90;80.72;98513.31;5080730;28;20507;-58
2022/08/31 00:58:12;;;;;;;9.95;5.55;;;;;;;18.89;80.81;98506.38;5036792;28;20036;-59
2022/08/31 01:00:39;;;;;;;8.15;5.35;;;;;;;18.85;81.08;98512.03;5068956;28;20047;-57
2022/08/31 01:03:06;;;;;;;12.20;5.25;;;;;;;18.54;81.39;98467.31;5059499;28;20036;-58
2022/08/31 01:05:33;;;;;;;14.18;5.78;;;;;;;18.78;81.40;98509.13;5060740;28;20041;-59
2022/08/31 01:07:59;;;;;;;8.93;4.60;;;;;;;18.75;81.94;98505.91;5033582;28;20051;-59
2022/08/31 01:10:50;;;;;;;12.63;6.00;;;;;;;18.72;82.31;98512.28;5055798;28;20430;-59
2022/08/31 01:13:19;;;;;;;8.18;4.90;;;;;;;18.68;82.41;98510.88;5060559;28;20044;-58
2022/08/31 01:15:53;;;;;;;10.82;6.00;;;;;;;18.56;82.72;98488.25;5056355;28;20444;-58
2022/08/31 01:18:21;;;;;;;8.02;5.65;;;;;;;18.48;83.03;98480.97;5076410;28;20543;-59
2022/08/31 01:20:59;;;;;;;9.68;5.18;;;;;;;18.47;83.23;98476.69;5070647;28;20041;-55
2022/08/31 01:23:30;;;;;;;12.60;5.47;;;;;;;18.60;83.85;98500.16;5075326;28;20424;-59
2022/08/31 01:25:56;;;;;;;8.65;5.80;;;;;;;18.57;84.04;98500.44;5066277;28;20068;-69
2022/08/31 01:28:22;;;;;;;9.02;5.40;;;;;;;18.54;84.36;98503.31;5066945;28;20131;-68
2022/08/31 01:31:04;;;;;;;9.95;5.38;;;;;;;18.47;85.00;98505.63;5042362;28;20428;-68
2022/08/31 01:33:32;;;;;;;9.65;5.32;;;;;;;18.43;85.41;98501.56;5070170;28;20052;-68
2022/08/31 01:35:58;;;;;;;11.38;5.95;;;;;;;18.39;85.53;98497.53;5069846;28;20430;-69
2022/08/31 01:38:25;;;;;;;10.45;5.50;;;;;;;18.36;86.07;98503.06;5070347;28;20524;-68
2022/08/31 01:40:55;;;;;;;8.98;5.07;;;;;;;18.33;86.33;98498.06;5070364;28;20472;-69
2022/08/31 01:43:21;;;;;;;15.98;6.10;;;;;;;18.30;86.57;98489.59;5080008;28;20047;-68
2022/08/31 01:45:58;;;;;;;9.45;5.07;;;;;;;18.28;86.95;98494.16;5061299;28;20040;-66
2022/08/31 01:48:46;;;;;;;11.02;5.93;;;;;;;18.23;87.42;98498.97;5037160;28;20051;-68
2022/08/31 01:51:14;;;;;;;11.98;5.85;;;;;;;18.23;87.55;98496.34;5068660;28;20044;-69
2022/08/31 01:53:42;;;;;;;7.38;4.68;;;;;;;18.05;87.83;98465.38;5068042;28;20044;-67
2022/08/31 01:56:13;;;;;;;11.43;6.30;;;;;;;18.15;88.12;98492.56;5079354;28;20119;-69
2022/08/31 01:58:39;;;;;;;7.93;5.40;;;;;;;17.92;88.56;98456.84;5051929;28;20076;-69
2022/08/31 02:01:47;;;;;;;12.65;6.20;;;;;;;17.98;88.17;98464.22;5016170;28;20041;-70
2022/08/31 02:04:16;;;;;;;10.07;5.38;;;;;;;18.08;88.82;98487.94;5020576;28;20192;-69
2022/08/31 02:06:44;;;;;;;9.57;5.85;;;;;;;18.04;89.40;98481.28;5061961;28;20052;-69
2022/08/31 02:09:10;;;;;;;10.53;5.90;;;;;;;18.02;89.81;98486.66;5067273;28;20068;-68
2022/08/31 02:11:37;;;;;;;8.82;6.03;;;;;;;18.02;89.78;98475.31;5057687;28;20285;-65
2022/08/31 02:14:03;;;;;;;12.30;6.68;;;;;;;17.98;90.07;98471.28;5069532;28;20078;-67
2022/08/31 02:16:28;;;;;;;12.63;5.82;;;;;;;17.86;90.31;98457.34;5071175;28;20040;-68
2022/08/31 02:18:55;;;;;;;5.28;3.88;;;;;;;17.93;90.23;98466.41;5088916;28;20752;-68
2022/08/31 02:21:21;;;;;;;10.70;5.78;;;;;;;17.96;90.64;98478.44;5047748;28;20041;-67
2022/08/31 02:23:47;;;;;;;9.50;4.75;;;;;;;17.92;90.88;98477.03;5080862;28;20051;-69
2022/08/31 02:26:13;;;;;;;8.20;6.65;;;;;;;17.91;90.91;98476.19;5072082;28;20127;-68
2022/08/31 02:28:42;;;;;;;9.27;5.93;;;;;;;17.90;90.84;98474.53;5069274;28;20044;-69
2022/08/31 02:31:08;;;;;;;9.90;6.03;;;;;;;17.90;90.72;98471.91;5071639;28;20101;-69
2022/08/31 02:33:43;;;;;;;9.90;6.45;;;;;;;17.91;90.95;98473.56;5089353;28;20121;-69
2022/08/31 02:36:10;;;;;;;8.40;5.90;;;;;;;17.88;91.09;98473.00;5071254;28;20037;-68
2022/08/31 02:38:37;;;;;;;10.00;6.00;;;;;;;17.85;91.34;98478.53;5078602;28;20079;-70
2022/08/31 02:41:03;;;;;;;7.55;6.03;;;;;;;17.82;91.55;98469.09;5072099;28;20041;-70
2022/08/31 02:43:29;;;;;;;7.20;5.32;;;;;;;17.82;91.51;98465.63;5055734;28;20054;-68
2022/08/31 02:45:55;;;;;;;8.23;6.53;;;;;;;17.80;91.41;98468.38;5055803;28;20422;-67
2022/08/31 02:48:26;;;;;;;8.20;6.05;;;;;;;17.78;91.23;98463.25;5049533;28;20040;-68
2022/08/31 02:50:53;;;;;;;10.70;6.10;;;;;;;17.81;91.09;98471.84;5052334;28;20047;-70
2022/08/31 02:53:21;;;;;;;7.35;5.75;;;;;;;17.82;90.99;98465.63;5080919;28;20109;-70
2022/08/31 02:55:48;;;;;;;11.23;5.97;;;;;;;17.79;91.21;98474.59;5083760;28;20078;-70
2022/08/31 02:58:15;;;;;;;17.98;6.88;;;;;;;17.77;91.27;98474.72;5073108;28;20139;-70
2022/08/31 03:00:45;;;;;;;9.65;6.10;;;;;;;17.80;91.26;98471.00;5075512;28;20032;-67
2022/08/31 03:03:12;;;;;;;13.13;5.72;;;;;;;17.79;90.85;98474.59;5081366;28;20458;-67
2022/08/31 03:05:37;;;;;;;7.68;5.50;;;;;;;17.78;91.20;98473.78;5071427;28;20040;-68
2022/08/31 03:08:04;;;;;;;15.88;6.38;;;;;;;17.73;90.88;98454.91;5062677;28;20047;-67
2022/08/31 03:10:30;;;;;;;8.88;5.60;;;;;;;17.70;90.48;98446.44;5087888;28;20644;-68
2022/08/31 03:12:56;;;;;;;11.52;5.93;;;;;;;17.82;90.50;98461.19;5071591;28;20036;-72
2022/08/31 03:15:24;;;;;;;9.95;5.70;;;;;;;17.69;90.29;98445.59;5057887;28;20048;-70
2022/08/31 03:17:50;;;;;;;7.35;5.63;;;;;;;17.82;90.45;98465.63;5091904;28;20059;-71
2022/08/31 03:20:19;;;;;;;9.02;5.70;;;;;;;17.79;90.27;98464.09;5092052;28;20097;-72
2022/08/31 03:22:45;;;;;;;12.68;6.20;;;;;;;17.76;90.44;98457.28;5071244;28;20036;-72
2022/08/31 03:25:12;;;;;;;9.00;5.90;;;;;;;17.55;90.05;98427.47;5079605;28;20063;-67
2022/08/31 03:27:38;;;;;;;9.57;6.00;;;;;;;17.81;89.80;98472.66;5070678;28;20036;-70
2022/08/31 03:30:08;;;;;;;8.25;5.32;;;;;;;17.84;89.87;98467.16;5055205;28;20150;-68
2022/08/31 03:32:35;;;;;;;6.93;5.00;;;;;;;17.83;89.52;98457.63;5054848;28;20139;-67
2022/08/31 03:35:02;;;;;;;12.57;5.68;;;;;;;17.82;89.79;98461.19;5073944;28;20115;-68
2022/08/31 03:37:29;;;;;;;9.77;5.47;;;;;;;17.70;89.39;98435.91;5063240;28;20044;-72
2022/08/31 03:39:58;;;;;;;8.40;5.78;;;;;;;17.85;88.95;98455.66;5091211;28;20538;-69
2022/08/31 03:42:25;;;;;;;9.25;6.18;;;;;;;17.87;89.12;98455.56;5065606;28;20380;-69
2022/08/31 03:44:51;;;;;;;9.70;6.47;;;;;;;17.87;89.04;98453.75;5091362;28;20040;-69
2022/08/31 03:47:22;;;;;;;9.10;5.85;;;;;;;17.89;88.72;98457.09;5088495;28;20090;-68
2022/08/31 03:49:48;;;;;;;10.68;6.05;;;;;;;17.79;88.71;98433.34;5076774;28;20089;-70
2022/08/31 03:52:30;;;;;;;10.82;5.88;;;;;;;17.89;88.45;98441.31;5076226;28;20102;-68
2022/08/31 03:55:04;;;;;;;9.07;5.85;;;;;;;17.79;88.10;98420.22;5089367;28;20079;-69
2022/08/31 03:57:31;;;;;;;9.27;5.40;;;;;;;17.84;87.97;98426.91;5038869;28;20041;-69
2022/08/31 03:59:57;;;;;;;8.32;5.63;;;;;;;17.96;87.87;98452.16;5072670;28;20102;-70
2022/08/31 04:02:42;;;;;;;7.80;5.35;;;;;;;17.96;87.95;98450.34;5070019;28;20452;-68
2022/08/31 04:05:42;;;;;;;7.30;5.10;;;;;;;17.98;87.58;98456.31;5052245;28;20126;-69
2022/08/31 04:08:27;;;;;;;10.93;5.85;;;;;;;17.99;87.24;98444.84;5082710;28;20131;-69
2022/08/31 04:11:14;;;;;;;8.77;5.00;;;;;;;18.05;86.82;98456.66;5089420;28;20400;-70
2022/08/31 04:13:59;;;;;;;8.13;5.25;;;;;;;17.93;86.54;98431.38;5069801;28;20048;-68
2022/08/31 04:16:25;;;;;;;7.82;4.97;;;;;;;18.04;86.45;98450.56;5070448;28;20044;-68
2022/08/31 04:19:26;;;;;;;9.82;6.20;;;;;;;18.07;86.29;98437.13;5068793;28;20140;-68
2022/08/31 04:22:00;;;;;;;7.80;5.15;;;;;;;18.08;86.11;98441.44;5067711;28;20068;-70
2022/08/31 04:24:28;;;;;;;7.07;4.40;;;;;;;18.10;85.63;98441.31;5070559;28;20101;-68
2022/08/31 04:26:54;;;;;;;8.60;5.13;;;;;;;18.12;85.63;98447.25;5081627;28;20045;-68
2022/08/31 04:29:20;;;;;;;7.18;4.82;;;;;;;18.10;85.26;98441.31;5050312;28;20049;-68
2022/08/31 04:31:46;;;;;;;7.35;4.97;;;;;;;18.10;85.26;98450.03;5074748;28;20045;-69
2022/08/31 04:34:12;;;;;;;8.55;4.93;;;;;;;18.20;85.12;98440.41;5073988;28;20100;-69
2022/08/31 04:36:39;;;;;;;7.10;4.45;;;;;;;18.20;84.46;98427.25;5086994;28;20067;-71
2022/08/31 04:39:06;;;;;;;10.70;4.80;;;;;;;18.38;83.69;98447.66;5068928;28;20089;-69
2022/08/31 04:41:36;;;;;;;6.78;4.43;;;;;;;18.41;83.35;98450.06;5069107;28;20040;-68
2022/08/31 04:44:03;;;;;;;7.72;4.25;;;;;;;18.41;82.98;98445.63;5069435;28;20068;-70
2022/08/31 04:46:35;;;;;;;5.95;4.43;;;;;;;18.41;82.60;98465.84;5069194;28;20056;-70
2022/08/31 04:49:01;;;;;;;9.55;4.70;;;;;;;18.24;82.60;98434.88;5070989;28;20051;-67
2022/08/31 04:51:29;;;;;;;7.90;4.80;;;;;;;18.41;82.48;98453.50;5063681;28;20036;-70
2022/08/31 04:53:56;;;;;;;8.60;4.55;;;;;;;18.54;82.20;98448.03;5086072;28;20532;-70
2022/08/31 04:56:25;;;;;;;6.57;3.80;;;;;;;18.70;81.18;98458.91;5039812;28;20048;-69
2022/08/31 04:58:54;;;;;;;10.43;4.72;;;;;;;18.71;80.61;98451.84;5049732;28;20041;-70
2022/08/31 05:01:23;;;;;;;8.48;4.50;;;;;;;18.79;80.29;98457.31;5046754;28;20056;-69
2022/08/31 05:04:22;;;;;;;7.45;4.70;;;;;;;18.93;79.50;98460.38;5075388;28;20086;-69
2022/08/31 05:06:49;;;;;;;10.13;4.43;;;;;;;19.04;79.15;98449.72;5082537;28;20121;-69
2022/08/31 05:09:18;;;;;;;6.68;4.47;;;;;;;19.15;78.28;98440.88;5070645;28;20086;-70
2022/08/31 05:11:48;;;;;;;6.30;3.30;;;;;;;19.20;77.72;98443.94;5062452;28;20044;-69
2022/08/31 05:14:14;;;;;;;5.47;3.53;;;;;;;19.11;77.48;98447.38;5052489;28;20175;-69
2022/08/31 05:16:44;;;;;;;6.78;3.67;;;;;;;19.18;77.25;98455.56;5049411;28;20295;-69
2022/08/31 05:19:10;;;;;;;6.70;3.85;;;;;;;19.26;76.83;98450.47;5049738;28;20541;-70
2022/08/31 05:21:39;;;;;;;4.78;3.47;;;;;;;19.33;76.35;98452.41;5068947;28;20044;-68
2022/08/31 05:24:10;;;;;;;9.52;4.10;;;;;;;19.33;76.11;98443.66;5052014;28;20044;-71
2022/08/31 05:26:43;;;;;;;6.05;4.93;;;;;;;19.42;76.04;98450.72;5068564;28;20413;-68
2022/08/31 05:29:12;;;;;;;10.93;4.47;;;;;;;19.53;75.60;98458.53;5033060;28;20051;-68
2022/08/31 05:31:37;;;;;;;7.85;4.60;;;;;;;19.55;75.50;98447.84;5081051;28;20397;-69
2022/08/31 05:34:04;;;;;;;5.88;4.43;;;;;;;19.62;75.27;98456.88;5052585;28;20051;-70
2022/08/31 05:36:36;;;;;;;4.97;3.42;;;;;;;19.50;75.16;98455.34;5067163;28;20177;-70
2022/08/31 05:39:02;;;;;;;10.48;5.05;;;;;;;19.22;76.48;98464.84;5068263;28;20435;-70
2022/08/31 05:41:29;;;;;;;9.68;4.78;;;;;;;19.16;77.16;98468.88;5067213;28;20210;-71
2022/08/31 05:43:55;;;;;;;7.15;4.15;;;;;;;19.10;77.21;98481.78;5069298;28;20066;-69
2022/08/31 05:46:22;;;;;;;6.35;3.58;;;;;;;18.86;77.67;98488.22;5068885;28;20123;-69
2022/08/31 05:48:48;;;;;;;10.88;4.53;;;;;;;18.65;78.54;98486.59;5067740;28;20048;-70
2022/08/31 05:51:15;;;;;;;14.57;4.10;;;;;;;18.62;78.15;98487.72;5051993;28;20043;-69
2022/08/31 05:53:42;;;;;;;8.48;3.90;;;;;;;18.53;77.44;98491.91;5066377;28;20045;-70
2022/08/31 05:56:15;;;;;;;7.43;3.95;;;;;;;18.57;77.63;98482.00;5080349;28;20042;-71
2022/08/31 05:58:42;;;;;;;6.80;3.67;;;;;;;18.53;77.15;98476.13;5050545;28;20056;-71
2022/08/31 06:01:14;;;;;;;7.07;3.40;;;;;;;18.68;76.82;98467.94;5035414;28;20404;-68
2022/08/31 06:04:02;;;;;;;5.90;4.55;;;;;;;18.72;76.04;98488.59;5060505;28;20422;-70
2022/08/31 06:06:28;;;;;;;5.85;3.80;;;;;;;18.82;75.47;98478.09;5066897;28;20170;-71
2022/08/31 06:08:54;;;;;;;9.05;3.45;;;;;;;18.91;74.89;98479.91;5066278;28;20519;-50
2022/08/31 06:11:23;;;;;;;6.78;3.88;;;;;;;18.81;75.20;98479.03;5067848;28;20032;-47
2022/08/31 06:13:53;;;;;;;6.65;4.28;;;;;;;18.81;75.30;98484.31;5076039;28;20047;-47
2022/08/31 06:16:19;;;;;;;8.57;3.47;;;;;;;18.81;74.68;98495.69;5053420;28;20040;-46
2022/08/31 06:18:49;;;;;;;6.93;3.85;;;;;;;18.74;75.09;98483.16;5059806;28;20431;-48
2022/08/31 06:21:24;;;;;;;5.97;3.58;;;;;;;18.92;74.62;98495.59;5058390;28;20052;-46
2022/08/31 06:23:52;;;;;;;7.10;3.60;;;;;;;20.05;70.75;98482.78;5079762;28;20051;-46
2022/08/31 06:26:22;;;;;;;6.05;3.28;;;;;;;20.20;68.84;98486.66;5068613;28;20119;-48
2022/08/31 06:28:51;;;;;;;7.72;3.40;;;;;;;20.44;67.44;98480.91;5067801;28;20439;-44
2022/08/31 06:31:23;;;;;;;4.57;3.25;;;;;;;20.52;65.83;98475.75;5070382;28;20043;-45
2022/08/31 06:33:50;;;;;;;7.30;3.35;;;;;;;21.25;64.07;98487.25;5077113;28;20041;-47
2022/08/31 06:36:32;;;;;;;6.07;2.50;;;;;;;21.31;62.28;98476.06;5051015;28;20478;-46
2022/08/31 06:39:11;;;;;;;6.35;2.83;;;;;;;20.90;62.56;98480.03;5056859;28;20068;-44
2022/08/31 06:42:09;;;;;;;7.55;2.85;;;;;;;20.82;63.09;98486.06;5058978;28;20067;-51
2022/08/31 06:44:55;;;;;;;7.80;3.47;;;;;;;20.76;63.11;98484.00;5037593;28;20474;-48
2022/08/31 06:47:37;;;;;;;8.27;3.25;;;;;;;20.68;63.21;98489.16;5046719;28;20041;-46
2022/08/31 06:50:05;;;;;;;4.90;2.63;;;;;;;20.22;63.14;98471.50;5051253;28;20037;-50
2022/08/31 06:52:31;;;;;;;3.80;2.10;;;;;;;20.14;63.55;98476.69;5048319;28;20546;-49
2022/08/31 06:55:23;;;;;;;4.75;2.00;;;;;;;20.16;63.45;98486.09;5061926;28;20075;-44
2022/08/31 06:58:08;;;;;;;3.28;1.65;;;;;;;19.94;63.65;98482.97;5054188;28;20049;-51
2022/08/31 07:00:52;;;;;;;3.58;2.03;;;;;;;20.05;63.73;98473.06;5059379;28;20052;-46
2022/08/31 07:03:43;;;;;;;3.80;2.08;;;;;;;19.96;63.79;98475.72;5057897;28;20041;-50
2022/08/31 07:06:16;;;;;;;9.25;2.47;;;;;;;20.04;63.79;98476.69;5064739;28;20072;-50
2022/08/31 07:08:44;;;;;;;2.15;1.35;;;;;;;19.99;62.85;98455.19;5066042;28;20062;-49
2022/08/31 07:11:12;;;;;;;4.97;1.90;;;;;;;19.95;62.71;98455.59;5063326;28;20036;-53
2022/08/31 07:13:39;;;;;;;7.07;2.50;;;;;;;20.16;62.50;98483.47;5068236;28;20032;-45
2022/08/31 07:16:07;;;;;;;6.97;1.85;;;;;;;20.19;62.55;98467.34;5050519;28;20598;-45
2022/08/31 07:18:33;;;;;;;4.47;1.85;;;;;;;20.29;62.40;98473.44;5053828;28;20036;-48
2022/08/31 07:21:17;;;;;;;5.28;3.10;;;;;;;20.38;62.28;98484.97;5067364;28;20045;-49
2022/08/31 07:23:43;;;;;;;8.05;2.80;;;;;;;20.36;62.31;98484.28;5065576;28;20048;-50
2022/08/31 07:26:21;;;;;;;12.23;2.25;;;;;;;20.25;62.49;98485.25;5069716;28;20135;-50
2022/08/31 07:28:51;;;;;;;3.90;2.25;;;;;;;20.29;62.62;98475.25;5063726;28;20044;-52
2022/08/31 07:31:21;;;;;;;7.10;2.10;;;;;;;20.36;62.43;98484.28;5042602;28;20515;-50
2022/08/31 07:33:54;;;;;;;9.80;1.90;;;;;;;20.27;62.70;98478.03;5068219;28;20048;-53
2022/08/31 07:36:23;;;;;;;1.98;1.60;;;;;;;20.34;62.28;98478.31;5067548;28;20051;-49
2022/08/31 07:44:27;;;;;;;9.85;2.00;;;;;;;20.21;62.99;98478.59;5067382;28;20036;-50
2022/08/31 07:46:57;;;;;;;10.77;2.40;;;;;;;20.14;63.46;98474.03;5068289;28;20047;-51
2022/08/31 07:49:25;;;;;;;3.47;1.85;;;;;;;20.15;63.44;98499.47;5070898;28;20040;-48
2022/08/31 07:52:11;;;;;;;13.27;2.20;;;;;;;20.19;63.41;98487.63;5068464;28;20056;-48
2022/08/31 07:55:10;;;;;;;3.92;2.08;;;;;;;20.16;63.64;98501.09;5063264;28;20154;-45
2022/08/31 07:57:57;;;;;;;4.75;1.88;;;;;;;20.10;64.10;98506.94;5058845;28;20599;-47
2022/08/31 08:00:26;;;;;;;6.88;2.00;;;;;;;19.87;65.15;98504.63;5069861;28;20511;-46
2022/08/31 08:02:52;;;;;;;7.78;2.33;;;;;;;19.72;66.20;98484.09;5071266;28;20154;-43
2022/08/31 08:05:24;;;;;;;6.18;1.98;;;;;;;19.97;66.41;98515.16;5066757;28;20119;-43
2022/08/31 08:08:11;;;;;;;6.95;2.13;;;;;;;19.99;66.54;98504.47;5068921;28;20055;-43
2022/08/31 08:11:06;;;;;;;5.22;1.98;;;;;;;20.23;65.81;98496.94;5059902;28;20084;-43
2022/08/31 08:13:46;;;;;;;3.17;1.70;;;;;;;20.65;64.36;98500.03;5068826;28;20044;-44
2022/08/31 08:16:22;;;;;;;4.40;1.70;;;;;;;21.14;62.56;98499.66;5069151;28;20036;-44
2022/08/31 08:19:20;;;;;;;4.32;1.60;;;;;;;21.32;61.32;98498.88;5028455;28;20044;-51
2022/08/31 08:21:47;;;;;;;2.35;1.30;;;;;;;20.90;61.60;98469.47;5068379;28;20044;-47
2022/08/31 08:24:19;;;;;;;5.45;1.55;;;;;;;21.11;62.13;98493.81;5052914;28;20063;-50
2022/08/31 08:27:17;;;;;;;3.63;1.42;;;;;;;21.32;61.42;98489.13;5052553;28;20506;-46
2022/08/31 08:29:57;;;;;;;2.53;1.30;;;;;;;21.12;60.78;98506.91;5054419;28;20096;-43
2022/08/31 08:32:30;;;;;;;2.63;1.40;;;;;;;20.95;61.32;98499.75;5069806;28;20049;-43
2022/08/31 08:34:56;;;;;;;2.42;1.48;;;;;;;21.43;60.49;98496.03;5069569;28;20048;-46
2022/08/31 08:37:22;;;;;;;2.78;1.33;;;;;;;22.07;58.78;98505.56;5069254;28;20122;-44
2022/08/31 08:39:48;;;;;;;1.95;1.27;;;;;;;21.58;58.97;98501.63;5049793;28;20040;-42
2022/08/31 08:42:21;;;;;;;2.55;1.38;;;;;;;21.25;60.22;98513.69;5069994;28;20041;-44
2022/08/31 08:44:47;;;;;;;2.80;1.38;;;;;;;20.82;61.37;98509.00;5068979;28;20037;-44
2022/08/31 08:47:17;;;;;;;3.30;1.60;;;;;;;20.67;62.07;98504.19;5035798;28;20052;-47
2022/08/31 08:49:53;;;;;;;4.07;1.80;;;;;;;20.62;62.50;98510.91;5050548;28;20183;-50
2022/08/31 08:52:25;;;;;;;3.63;1.40;;;;;;;20.60;62.34;98505.75;5064669;28;20044;-47
2022/08/31 08:54:53;;;;;;;4.30;1.35;;;;;;;20.66;62.07;98510.47;5077401;28;20127;-45
2022/08/31 08:57:28;;;;;;;4.13;1.73;;;;;;;20.85;61.10;98500.78;5067017;28;20079;-43
2022/08/31 09:00:04;;;;;;;3.92;1.60;;;;;;;21.14;60.09;98504.97;5049792;28;20082;-49
2022/08/31 09:02:56;;;;;;;4.65;1.25;;;;;;;21.39;59.32;98478.81;5047733;28;20051;-51
2022/08/31 09:06:01;;;;;;;6.03;1.42;;;;;;;21.44;58.56;98501.16;5053737;28;20036;-49
2022/08/31 09:08:49;;;;;;;2.30;1.20;;;;;;;21.04;59.32;98504.16;5068807;28;20032;-47
2022/08/31 09:11:45;;;;;;;2.20;1.10;;;;;;;20.62;60.38;98501.13;5068944;28;20049;-49
2022/08/31 09:14:46;;;;;;;2.75;1.10;;;;;;;20.21;63.74;98530.53;5066156;28;20562;-44
2022/08/31 09:17:15;;;;;;;5.30;1.65;;;;;;;19.86;66.14;98520.56;5031666;28;20053;-48
2022/08/31 09:22:28;;;;;;;5.30;1.70;;;;;;;19.58;67.88;98531.94;5065554;28;20036;-44
2022/08/31 09:24:58;;;;;;;9.60;3.20;;;;;;;19.54;69.65;98541.09;5051097;28;20496;-50
2022/08/31 09:27:56;;;;;;;5.22;1.60;;;;;;;19.26;72.59;98545.34;5065047;28;20040;-47
2022/08/31 09:30:52;;;;;;;1.30;1.20;;;;;;;18.34;77.56;98539.19;5068902;28;20151;-45
2022/08/31 09:33:23;;;;;;;3.75;1.30;;;;;;;18.04;79.51;98539.13;5045179;28;20427;-46
2022/08/31 09:35:55;;;;;;;2.45;2.17;;;;;;;17.90;80.28;98535.00;5069765;28;20039;-45
2022/08/31 09:38:25;;;;;;;2.75;1.60;;;;;;;17.99;81.13;98533.44;5069860;28;20054;-46
2022/08/31 09:40:51;;;;;;;2.88;1.30;;;;;;;18.23;81.69;98541.06;5068458;28;20047;-45
2022/08/31 09:43:37;;;;;;;3.70;1.40;;;;;;;18.62;80.85;98540.38;5065243;28;20508;-48
2022/08/31 09:46:06;;;;;;;3.25;1.60;;;;;;;19.20;78.65;98548.50;5067541;28;20029;-47
2022/08/31 09:48:47;;;;;;;7.15;1.95;;;;;;;20.21;75.68;98538.44;5070924;28;20470;-52
2022/08/31 09:51:26;;;;;;;2.08;1.42;;;;;;;22.28;66.40;98533.38;5068131;28;20039;-48
2022/08/31 09:56:55;;;;;;;5.65;2.60;;;;;;;25.12;55.70;98545.38;5068634;28;20040;-46
2022/08/31 09:59:30;;;;;;;2.28;1.30;;;;;;;24.16;54.93;98536.56;5066781;28;20040;-48
2022/08/31 10:01:59;;;;;;;4.03;1.83;;;;;;;23.87;56.00;98542.34;5067289;28;20095;-48
2022/08/31 10:04:35;;;;;;;3.10;1.67;;;;;;;24.26;54.70;98544.41;5052009;28;20051;-46
2022/08/31 10:07:23;;;;;;;2.30;1.48;;;;;;;24.08;54.21;98537.38;5052852;28;20538;-46
2022/08/31 10:10:03;;;;;;;1.40;1.13;;;;;;;23.96;54.78;98549.34;5078086;28;20040;-45
2022/08/31 10:13:04;;;;;;;2.10;1.27;;;;;;;23.64;53.55;98551.94;5064095;28;20032;-44
2022/08/31 10:15:41;;;;;;;1.77;1.08;;;;;;;23.02;54.43;98561.16;5055012;28;20048;-47
2022/08/31 10:18:18;;;;;;;1.60;0.93;;;;;;;22.84;54.92;98552.44;5080358;28;20048;-43
2022/08/31 10:20:58;;;;;;;2.15;1.13;;;;;;;22.57;55.20;98548.94;5067032;28;20052;-43
2022/08/31 10:23:25;;;;;;;2.00;1.30;;;;;;;22.37;55.67;98543.03;5076898;28;20486;-45
2022/08/31 10:25:59;;;;;;;2.88;1.40;;;;;;;22.32;55.51;98555.91;5079067;28;20049;-48
2022/08/31 10:28:50;;;;;;;2.88;1.20;;;;;;;22.32;55.88;98557.72;5076789;28;20565;-50
2022/08/31 10:31:23;;;;;;;4.28;1.30;;;;;;;22.15;55.60;98550.63;5074331;28;20525;-49
2022/08/31 10:36:39;;;;;;;1.35;0.80;;;;;;;22.07;54.97;98567.28;5077364;28;20044;-46
2022/08/31 10:39:16;;;;;;;4.93;0.85;;;;;;;21.97;55.28;98566.53;5076472;28;20044;-45
2022/08/31 10:41:46;;;;;;;1.67;0.80;;;;;;;22.09;55.41;98583.00;5068571;28;20556;-48
2022/08/31 10:44:25;;;;;;;1.73;0.65;;;;;;;22.74;53.85;98571.09;5068654;28;20051;-45
2022/08/31 10:46:57;;;;;;;3.83;0.82;;;;;;;23.49;52.37;98556.22;5067839;28;20071;-44
2022/08/31 10:49:23;;;;;;;5.07;0.95;;;;;;;24.41;50.85;98566.63;5061377;28;20089;-43
2022/08/31 10:52:16;;;;;;;3.47;1.40;;;;;;;25.87;48.45;98563.47;5071396;28;20036;-43
2022/08/31 10:55:06;;;;;;;1.60;1.05;;;;;;;27.26;44.60;98562.03;5080754;28;20067;-43
2022/08/31 10:58:04;;;;;;;0.82;0.80;;;;;;;27.27;43.97;98569.84;5068055;28;20044;-45
2022/08/31 11:00:47;;;;;;;2.72;1.17;;;;;;;26.17;46.04;98582.06;5065482;28;20812;-46
2022/08/31 11:03:48;;;;;;;1.98;1.30;;;;;;;24.40;50.32;98573.78;5076080;28;20036;-46
2022/08/31 11:06:46;;;;;;;2.40;1.30;;;;;;;23.35;53.55;98564.75;5036456;28;20490;-50
2022/08/31 11:09:40;;;;;;;3.30;1.30;;;;;;;22.49;55.73;98548.06;5063623;28;20427;-46
2022/08/31 11:12:10;;;;;;;3.75;1.15;;;;;;;22.36;56.55;98551.94;5070273;28;20040;-46
2022/08/31 11:14:50;;;;;;;1.73;1.10;;;;;;;22.18;57.23;98580.28;5068780;28;20385;-44
2022/08/31 11:17:25;;;;;;;3.08;1.10;;;;;;;21.79;59.30;98581.53;5070592;28;20033;-45
2022/08/31 11:20:25;;;;;;;3.30;1.20;;;;;;;21.44;61.43;98585.78;5072600;28;20504;-47
2022/08/31 11:23:28;;;;;;;1.42;1.02;;;;;;;20.99;63.00;98585.69;5070719;28;20058;-47
2022/08/31 11:26:25;;;;;;;2.58;1.10;;;;;;;20.53;65.31;98586.50;5070211;28;20068;-45
2022/08/31 11:29:11;;;;;;;1.58;0.90;;;;;;;20.37;65.01;98580.16;5053802;28;20090;-45
2022/08/31 11:31:39;;;;;;;2.08;1.02;;;;;;;20.21;64.93;98568.31;5052540;28;20047;-47
2022/08/31 11:34:25;;;;;;;1.10;0.80;;;;;;;20.41;64.01;98589.47;5072048;28;20515;-50
2022/08/31 11:36:53;;;;;;;1.33;0.90;;;;;;;20.26;63.28;98589.00;5072317;28;20079;-46
2022/08/31 11:39:43;;;;;;;1.48;0.85;;;;;;;20.10;63.49;98576.38;5052387;28;20068;-45
2022/08/31 11:42:26;;;;;;;4.15;1.17;;;;;;;20.13;63.46;98577.91;5077595;28;20089;-45
2022/08/31 11:45:00;;;;;;;3.08;0.70;;;;;;;20.04;63.53;98576.97;5072291;28;20086;-47
2022/08/31 11:47:28;;;;;;;2.35;0.80;;;;;;;19.96;63.42;98570.69;5071883;28;20040;-46
2022/08/31 11:50:04;;;;;;;5.93;1.00;;;;;;;19.92;63.63;98585.13;5072046;28;20404;-48
2022/08/31 11:52:42;;;;;;;6.38;1.33;;;;;;;20.14;63.26;98593.63;5066233;28;20040;-45
2022/08/31 11:55:24;;;;;;;29.65;14.30;;;;;;;20.51;61.97;98591.13;5088958;28;20047;-43
2022/08/31 11:58:14;;;;;;;6.38;0.80;;;;;;;20.63;59.56;98599.69;5069151;28;20055;-46
2022/08/31 12:01:01;;;;;;;10.50;1.10;;;;;;;20.60;58.62;98578.84;5050707;28;20070;-46
2022/08/31 12:03:49;;;;;;;3.45;0.90;;;;;;;21.00;57.64;98591.78;5066258;28;20039;-45
2022/08/31 12:06:25;;;;;;;3.95;1.75;;;;;;;21.26;56.99;98582.25;5050167;28;20049;-48
2022/08/31 12:09:08;;;;;;;3.28;1.08;;;;;;;21.41;56.54;98591.34;5062970;28;20048;-46
2022/08/31 12:11:40;;;;;;;6.60;2.13;;;;;;;21.48;56.66;98594.25;5055729;28;20101;-46
2022/08/31 12:14:18;;;;;;;7.68;1.10;;;;;;;21.38;56.83;98602.25;5064268;28;20400;-48
2022/08/31 12:16:55;;;;;;;6.47;0.90;;;;;;;20.78;56.69;98608.81;5061813;28;20064;-46
2022/08/31 12:20:11;;;;;;;6.60;0.70;;;;;;;20.27;57.02;98614.44;5080987;28;20050;-48